Time;durP1;ratioP1;P1;durP2;ratioP2;P2;SDS_P1;SDS_P2;PMS_P1;PMS_P2;Temp;Humidity;BMP_temperature;BMP_pressure;BME280_temperature;BME280_humidity;BME280_pressure;Samples;Min_cycle;Max_cycle;Signal;HPM_P1;HPM_P2
2022/12/17 13:08:05;;;;;;;19.27;11.77;;;;;;;;;;5022668;28;20410;-68
2022/12/17 13:10:32;;;;;;;17.53;11.80;;;;;;;;;;5028448;28;20213;-67
2022/12/17 13:13:06;;;;;;;21.13;12.23;;;;;;;;;;5019657;28;20239;-67
2022/12/17 13:18:16;;;;;;;21.07;13.20;;;;;;;;;;4995108;28;20227;-68
2022/12/17 13:20:58;;;;;;;20.00;12.53;;;;;;;;;;5006148;28;20208;-67
2022/12/17 13:23:35;;;;;;;20.83;13.33;;;;;;;;;;5000232;28;20274;-67
2022/12/17 13:26:16;;;;;;;20.00;12.73;;;;;;;;;;4999117;28;20242;-67
2022/12/17 13:28:44;;;;;;;25.43;14.87;;;;;;;;;;5001675;28;20271;-67
2022/12/17 13:31:16;;;;;;;21.20;13.90;;;;;;;;;;5003120;28;20291;-67
2022/12/17 13:33:46;;;;;;;19.80;13.33;;;;;;;;;;5000836;28;20209;-67
2022/12/17 13:36:18;;;;;;;19.20;13.43;;;;;;;;;;5011349;28;20291;-67
2022/12/17 13:38:49;;;;;;;20.50;12.93;;;;;;;;;;5006549;28;20251;-67
2022/12/17 13:41:18;;;;;;;20.63;12.63;;;;;;;;;;5004462;28;20209;-67
2022/12/17 13:49:15;;;;;;;19.13;12.60;;;;;;;;;;5960594;22;20238;-66
2022/12/17 13:51:43;;;;;;;17.70;12.33;;;;;;;;;;5059370;28;20302;-64
2022/12/17 13:54:15;;;;;;;22.77;14.50;;;;;;;;;;5114616;22;20240;-90
2022/12/17 13:56:42;;;;;;;17.90;12.47;;;;;;;;;;5065423;28;20231;-89
2022/12/17 13:59:18;;;;;;;21.23;13.70;;;;;;;;;;5068654;28;20222;-90
2022/12/17 14:01:45;;;;;;;26.47;16.23;;;;;;;;;;5067142;28;20213;-91
2022/12/17 14:04:20;;;;;;;23.57;14.67;;;;;;;;;;5069653;28;20206;-91
2022/12/17 14:06:49;;;;;;;27.17;15.83;;;;;;;;;;5079621;28;20222;-91
2022/12/17 14:09:17;;;;;;;25.03;15.13;;;;;;;;;;5072354;28;20211;-91
2022/12/17 14:14:31;;;;;;;22.60;14.93;;;;;;;;;;5080268;28;20200;-91
2022/12/17 14:16:58;;;;;;;22.93;14.03;;;;;;;;;;5076459;28;20282;-89
2022/12/17 14:19:26;;;;;;;20.03;12.80;;;;;;;;;;5078467;28;20221;-91
2022/12/17 14:21:55;;;;;;;22.77;14.43;;;;;;;;;;5074482;28;20236;-91
2022/12/17 14:24:25;;;;;;;30.07;17.70;;;;;;;;;;5076671;28;20199;-92
2022/12/17 14:26:54;;;;;;;29.20;16.27;;;;;;;;;;5076820;28;20194;-91
2022/12/17 14:29:23;;;;;;;44.33;24.10;;;;;;;;;;5069457;28;20546;-92
2022/12/17 14:31:54;;;;;;;45.17;24.87;;;;;;;;;;5069237;28;20213;-90
2022/12/17 14:34:21;;;;;;;28.00;16.63;;;;;;;;;;5069299;28;20286;-92
2022/12/17 14:37:01;;;;;;;23.43;14.37;;;;;;;;;;5071356;28;20234;-91
2022/12/17 14:39:30;;;;;;;23.00;15.33;;;;;;;;;;5077434;28;20206;-92
2022/12/17 14:44:51;;;;;;;21.43;14.03;;;;;;;;;;5069544;28;20206;-91
2022/12/17 14:47:19;;;;;;;26.87;17.10;;;;;;;;;;5068882;28;20289;-91
2022/12/17 14:49:55;;;;;;;28.30;17.67;;;;;;;;;;5069601;28;20207;-88
2022/12/17 14:52:27;;;;;;;25.10;15.80;;;;;;;;;;5067469;28;20202;-91
2022/12/17 14:54:56;;;;;;;24.87;15.93;;;;;;;;;;5072688;28;20210;-91
2022/12/17 14:57:24;;;;;;;30.93;16.73;;;;;;;;;;5068147;28;20231;-90
2022/12/17 14:59:51;;;;;;;26.20;15.37;;;;;;;;;;5066330;28;20204;-92
2022/12/17 15:02:24;;;;;;;31.93;17.13;;;;;;;;;;5074930;28;20292;-92
2022/12/17 15:04:53;;;;;;;40.53;19.03;;;;;;;;;;5075373;22;20283;-92
2022/12/17 15:07:25;;;;;;;50.77;21.70;;;;;;;;;;5068249;28;20207;-92
2022/12/17 15:09:53;;;;;;;35.30;18.17;;;;;;;;;;5063342;28;20206;-93
2022/12/17 15:12:22;;;;;;;31.10;17.40;;;;;;;;;;5068248;28;20219;-91
2022/12/17 15:14:49;;;;;;;28.20;17.50;;;;;;;;;;5059751;28;20205;-91
2022/12/17 15:17:17;;;;;;;31.60;17.50;;;;;;;;;;5064955;28;20235;-91
2022/12/17 15:19:45;;;;;;;29.63;16.53;;;;;;;;;;5072251;28;20226;-92
2022/12/17 15:22:15;;;;;;;25.97;15.93;;;;;;;;;;5071593;28;20210;-93
2022/12/17 15:24:44;;;;;;;24.60;15.70;;;;;;;;;;5071758;28;20214;-94
2022/12/17 15:27:13;;;;;;;28.10;16.83;;;;;;;;;;5067786;28;20214;-92
2022/12/17 15:29:41;;;;;;;27.43;16.10;;;;;;;;;;5069120;28;20215;-93
2022/12/17 15:32:20;;;;;;;38.17;16.20;;;;;;;;;;5061550;28;20215;-92
2022/12/17 15:34:47;;;;;;;28.00;16.57;;;;;;;;;;5073181;28;20237;-92
2022/12/17 15:37:15;;;;;;;24.73;15.43;;;;;;;;;;5068741;28;20234;-93
2022/12/17 15:39:42;;;;;;;35.33;17.70;;;;;;;;;;5071911;28;20195;-93
2022/12/17 15:44:56;;;;;;;29.73;15.80;;;;;;;;;;5069769;28;20225;-93
2022/12/17 15:47:23;;;;;;;27.30;16.60;;;;;;;;;;5069760;28;20283;-92
2022/12/17 15:49:50;;;;;;;34.83;17.37;;;;;;;;;;5074203;28;20336;-91
2022/12/17 15:52:17;;;;;;;29.50;17.67;;;;;;;;;;5072107;28;20199;-92
2022/12/17 15:54:45;;;;;;;29.47;17.47;;;;;;;;;;5071845;28;20310;-91
2022/12/17 15:57:12;;;;;;;37.87;20.90;;;;;;;;;;5072586;28;20215;-91
2022/12/17 15:59:39;;;;;;;35.53;19.73;;;;;;;;;;5072793;28;20229;-92
2022/12/17 16:02:10;;;;;;;34.07;19.13;;;;;;;;;;5070502;28;20215;-91
2022/12/17 16:04:37;;;;;;;30.57;17.77;;;;;;;;;;5058438;28;20273;-91
2022/12/17 16:07:04;;;;;;;31.07;18.13;;;;;;;;;;5065504;28;20205;-92
2022/12/17 16:09:32;;;;;;;28.97;17.03;;;;;;;;;;5073136;28;20234;-91
2022/12/17 16:11:59;;;;;;;27.67;16.47;;;;;;;;;;5071775;28;20236;-92
2022/12/17 16:14:26;;;;;;;31.23;17.63;;;;;;;;;;5073178;28;20317;-92
2022/12/17 16:16:53;;;;;;;27.50;17.73;;;;;;;;;;5072148;28;20246;-92
2022/12/17 16:19:22;;;;;;;26.83;17.13;;;;;;;;;;5074301;28;20246;-92
2022/12/17 16:21:49;;;;;;;29.57;18.03;;;;;;;;;;5071619;28;20195;-93
2022/12/17 16:24:16;;;;;;;27.93;17.10;;;;;;;;;;5073364;28;20215;-90
2022/12/17 16:26:44;;;;;;;27.10;17.40;;;;;;;;;;5066913;28;20298;-92
2022/12/17 16:29:11;;;;;;;29.03;17.67;;;;;;;;;;5071863;28;20268;-90
2022/12/17 16:31:38;;;;;;;36.20;17.63;;;;;;;;;;5069168;28;20263;-93
2022/12/17 16:34:08;;;;;;;30.77;16.80;;;;;;;;;;5073651;28;20299;-92
2022/12/17 16:36:37;;;;;;;29.83;17.43;;;;;;;;;;5073107;28;20219;-92
2022/12/17 16:39:05;;;;;;;25.70;15.87;;;;;;;;;;5073552;28;20210;-91
2022/12/17 16:41:32;;;;;;;30.20;18.07;;;;;;;;;;5072445;28;20277;-92
2022/12/17 16:44:00;;;;;;;37.67;18.40;;;;;;;;;;5067548;28;20289;-90
2022/12/17 16:46:28;;;;;;;32.47;18.93;;;;;;;;;;5071344;28;20195;-92
2022/12/17 16:48:57;;;;;;;36.00;19.80;;;;;;;;;;5071515;28;20209;-92
2022/12/17 16:51:25;;;;;;;36.03;18.50;;;;;;;;;;5069202;28;20198;-89
2022/12/17 16:53:54;;;;;;;52.97;19.30;;;;;;;;;;5069968;28;20246;-92
2022/12/17 16:56:22;;;;;;;32.50;17.63;;;;;;;;;;5068741;28;20211;-92
2022/12/17 16:58:51;;;;;;;31.60;19.00;;;;;;;;;;5066778;28;20294;-92
2022/12/17 17:01:19;;;;;;;42.40;22.33;;;;;;;;;;5066916;28;20219;-92
2022/12/17 17:03:46;;;;;;;29.30;18.43;;;;;;;;;;5063213;28;20205;-91
2022/12/17 17:06:14;;;;;;;30.97;17.30;;;;;;;;;;5066173;28;20276;-90
2022/12/17 17:08:41;;;;;;;29.60;17.47;;;;;;;;;;5065794;28;20231;-91
2022/12/17 17:11:11;;;;;;;83.90;18.17;;;;;;;;;;5068113;28;20237;-94
2022/12/17 17:13:39;;;;;;;47.37;17.70;;;;;;;;;;5066762;28;20386;-92
2022/12/17 17:16:06;;;;;;;55.10;19.60;;;;;;;;;;5068969;28;20217;-91
2022/12/17 17:18:34;;;;;;;36.83;18.23;;;;;;;;;;5068619;28;20210;-91
2022/12/17 17:21:16;;;;;;;41.77;23.20;;;;;;;;;;5063774;28;20212;-92
2022/12/17 17:23:43;;;;;;;45.97;19.63;;;;;;;;;;5069731;28;20202;-92
2022/12/17 17:26:12;;;;;;;54.20;18.67;;;;;;;;;;5061133;28;20206;-92
2022/12/17 17:28:40;;;;;;;36.00;18.60;;;;;;;;;;5064975;28;20213;-93
2022/12/17 17:31:08;;;;;;;76.00;19.97;;;;;;;;;;5060442;28;20251;-94
2022/12/17 17:33:37;;;;;;;102.33;24.90;;;;;;;;;;5065686;28;20414;-94
2022/12/17 17:36:05;;;;;;;115.30;22.80;;;;;;;;;;5066101;28;20271;-92
2022/12/17 17:38:33;;;;;;;148.23;24.27;;;;;;;;;;5060824;28;20218;-92
2022/12/17 17:41:00;;;;;;;39.37;20.33;;;;;;;;;;5058729;28;20213;-92
2022/12/17 17:43:31;;;;;;;39.87;19.07;;;;;;;;;;5063603;28;20207;-89
2022/12/17 17:46:04;;;;;;;39.87;20.97;;;;;;;;;;5057296;28;20294;-94
2022/12/17 17:48:32;;;;;;;43.53;23.03;;;;;;;;;;5067075;28;20195;-93
2022/12/17 17:50:59;;;;;;;48.53;20.20;;;;;;;;;;5063135;28;20213;-89
2022/12/17 17:53:27;;;;;;;44.30;19.33;;;;;;;;;;5064580;28;20219;-92
2022/12/17 17:55:54;;;;;;;35.30;18.83;;;;;;;;;;5068559;28;20256;-92
2022/12/17 17:58:21;;;;;;;35.67;20.23;;;;;;;;;;5064980;28;20225;-93
2022/12/17 18:00:50;;;;;;;33.33;19.27;;;;;;;;;;5069785;28;20209;-91
2022/12/17 18:03:17;;;;;;;33.00;18.70;;;;;;;;;;5066109;28;20736;-91
2022/12/17 18:05:44;;;;;;;29.60;17.67;;;;;;;;;;5069006;28;20298;-92
2022/12/17 18:08:12;;;;;;;51.97;19.23;;;;;;;;;;5067052;28;20210;-92
2022/12/17 18:10:40;;;;;;;59.67;30.37;;;;;;;;;;5069990;28;20236;-91
2022/12/17 18:16:00;;;;;;;50.57;18.70;;;;;;;;;;5068991;28;20196;-93
2022/12/17 18:18:27;;;;;;;38.57;21.10;;;;;;;;;;5068420;28;20306;-91
2022/12/17 18:21:02;;;;;;;40.43;22.43;;;;;;;;;;5069849;28;20225;-93
2022/12/17 18:23:29;;;;;;;37.87;20.63;;;;;;;;;;5069021;28;20216;-91
2022/12/17 18:25:57;;;;;;;43.30;23.33;;;;;;;;;;5060081;28;20202;-92
2022/12/17 18:28:24;;;;;;;37.43;19.97;;;;;;;;;;5067593;28;20198;-92
2022/12/17 18:30:51;;;;;;;33.90;19.67;;;;;;;;;;5066835;28;20255;-90
2022/12/17 18:33:20;;;;;;;36.27;21.07;;;;;;;;;;5066960;28;20210;-91
2022/12/17 18:35:47;;;;;;;37.13;19.80;;;;;;;;;;5064263;28;20213;-93
2022/12/17 18:38:14;;;;;;;31.53;18.17;;;;;;;;;;5059366;28;20232;-93
2022/12/17 18:40:41;;;;;;;38.70;18.67;;;;;;;;;;5062182;28;20207;-91
2022/12/17 18:43:23;;;;;;;31.07;18.10;;;;;;;;;;5069686;28;20240;-93
2022/12/17 18:45:51;;;;;;;34.30;18.40;;;;;;;;;;5063030;28;20198;-91
2022/12/17 18:48:19;;;;;;;34.70;19.30;;;;;;;;;;5066042;28;20241;-92
2022/12/17 18:50:47;;;;;;;43.70;20.97;;;;;;;;;;5068413;28;20216;-93
2022/12/17 18:53:14;;;;;;;32.23;18.67;;;;;;;;;;5066161;28;20242;-92
2022/12/17 18:55:41;;;;;;;37.63;21.77;;;;;;;;;;5066015;28;20207;-93
2022/12/17 18:58:09;;;;;;;41.87;22.17;;;;;;;;;;5069270;28;20225;-92
2022/12/17 19:00:38;;;;;;;35.87;18.67;;;;;;;;;;5069898;28;20204;-92
2022/12/17 19:03:06;;;;;;;35.13;17.80;;;;;;;;;;5061094;28;20224;-93
2022/12/17 19:05:35;;;;;;;30.43;17.37;;;;;;;;;;5066856;28;20235;-92
2022/12/17 19:08:02;;;;;;;28.43;17.40;;;;;;;;;;5065554;28;20210;-92
2022/12/17 19:10:30;;;;;;;35.87;19.17;;;;;;;;;;5068861;28;20226;-92
2022/12/17 19:12:58;;;;;;;34.53;19.13;;;;;;;;;;5070188;28;20252;-92
2022/12/17 19:15:25;;;;;;;32.23;18.70;;;;;;;;;;5065255;28;20207;-92
2022/12/17 19:17:52;;;;;;;31.77;18.40;;;;;;;;;;5067952;28;20222;-93
2022/12/17 19:20:20;;;;;;;44.10;26.13;;;;;;;;;;5070170;28;20207;-93
2022/12/17 19:22:50;;;;;;;41.07;23.30;;;;;;;;;;5069828;28;20207;-93
2022/12/17 19:25:17;;;;;;;29.83;17.23;;;;;;;;;;5066854;28;20443;-92
2022/12/17 19:27:45;;;;;;;25.80;15.73;;;;;;;;;;5064227;28;20222;-93
2022/12/17 19:30:12;;;;;;;29.03;17.20;;;;;;;;;;5065312;28;20210;-89
2022/12/17 19:32:40;;;;;;;26.90;16.83;;;;;;;;;;5062070;28;20204;-93
2022/12/17 19:35:07;;;;;;;27.57;16.90;;;;;;;;;;5060625;28;20290;-94
2022/12/17 19:37:34;;;;;;;32.73;19.03;;;;;;;;;;5069664;28;20299;-92
2022/12/17 19:40:03;;;;;;;30.40;18.00;;;;;;;;;;5062075;28;20242;-94
2022/12/17 19:42:30;;;;;;;31.53;18.13;;;;;;;;;;5065910;28;20218;-93
2022/12/17 19:44:57;;;;;;;37.27;17.83;;;;;;;;;;5065272;28;20234;-93
2022/12/17 19:47:25;;;;;;;29.77;15.57;;;;;;;;;;5062360;28;20670;-92
2022/12/17 19:49:52;;;;;;;31.33;16.47;;;;;;;;;;5068010;28;20206;-93
2022/12/17 19:52:20;;;;;;;32.60;15.90;;;;;;;;;;5065564;28;20303;-93
2022/12/17 19:54:47;;;;;;;36.40;16.77;;;;;;;;;;5060770;28;20212;-92
2022/12/17 19:57:16;;;;;;;35.77;20.57;;;;;;;;;;5063970;28;20229;-92
2022/12/17 19:59:43;;;;;;;34.83;19.40;;;;;;;;;;5061458;28;20211;-94
2022/12/17 20:02:14;;;;;;;32.60;18.93;;;;;;;;;;5065527;28;20229;-92
2022/12/17 20:04:41;;;;;;;31.90;18.63;;;;;;;;;;5063393;28;20221;-93
2022/12/17 20:07:09;;;;;;;32.30;18.33;;;;;;;;;;5071642;28;20307;-94
2022/12/17 20:09:36;;;;;;;30.70;17.07;;;;;;;;;;5064426;28;20310;-93
2022/12/17 20:12:04;;;;;;;31.33;17.90;;;;;;;;;;5071559;28;20214;-91
2022/12/17 20:14:34;;;;;;;29.13;16.97;;;;;;;;;;5066030;28;20259;-89
2022/12/17 20:17:03;;;;;;;34.03;17.93;;;;;;;;;;5062117;28;20238;-92
2022/12/17 20:19:32;;;;;;;31.53;18.20;;;;;;;;;;5060505;28;20210;-93
2022/12/17 20:21:59;;;;;;;33.67;18.90;;;;;;;;;;5059774;28;20230;-93
2022/12/17 20:24:27;;;;;;;30.60;17.00;;;;;;;;;;5066133;28;20191;-92
2022/12/17 20:26:55;;;;;;;32.63;17.93;;;;;;;;;;5061090;28;20229;-93
2022/12/17 20:29:23;;;;;;;27.27;16.70;;;;;;;;;;5061295;28;20238;-93
2022/12/17 20:31:52;;;;;;;30.73;17.33;;;;;;;;;;5060962;28;20202;-93
2022/12/17 20:34:20;;;;;;;29.93;17.77;;;;;;;;;;5066665;28;20241;-91
2022/12/17 20:36:47;;;;;;;31.60;18.40;;;;;;;;;;5061863;28;20221;-91
2022/12/17 20:39:14;;;;;;;30.87;17.60;;;;;;;;;;5068055;28;20248;-92
2022/12/17 20:41:42;;;;;;;32.60;17.83;;;;;;;;;;5062676;28;20199;-93
2022/12/17 20:44:11;;;;;;;33.63;19.53;;;;;;;;;;5068449;28;20297;-92
2022/12/17 20:46:39;;;;;;;30.43;18.20;;;;;;;;;;5065696;28;20195;-94
2022/12/17 20:49:08;;;;;;;35.17;20.00;;;;;;;;;;5060323;28;20319;-92
2022/12/17 20:51:35;;;;;;;32.83;18.50;;;;;;;;;;5063749;28;20234;-90
2022/12/17 20:54:03;;;;;;;28.13;16.27;;;;;;;;;;5059115;28;20230;-92
2022/12/17 20:56:31;;;;;;;25.80;14.83;;;;;;;;;;5064968;28;20302;-94
2022/12/17 20:59:01;;;;;;;27.20;15.80;;;;;;;;;;5073854;28;20226;-92
2022/12/17 21:01:28;;;;;;;29.33;16.10;;;;;;;;;;5060323;28;20224;-92
2022/12/17 21:03:56;;;;;;;26.53;15.93;;;;;;;;;;5061682;28;20227;-91
2022/12/17 21:06:25;;;;;;;30.23;16.73;;;;;;;;;;5063103;28;20236;-92
2022/12/17 21:08:53;;;;;;;31.30;17.30;;;;;;;;;;5069687;28;20203;-92
2022/12/17 21:11:22;;;;;;;52.47;24.17;;;;;;;;;;5066706;28;20206;-92
2022/12/17 21:13:49;;;;;;;38.63;19.67;;;;;;;;;;5067658;28;21568;-93
2022/12/17 21:16:17;;;;;;;38.30;20.27;;;;;;;;;;5064064;28;20332;-92
2022/12/17 21:18:45;;;;;;;49.77;25.07;;;;;;;;;;5068347;28;20221;-90
2022/12/17 21:21:15;;;;;;;36.20;19.80;;;;;;;;;;5066080;28;20237;-92
2022/12/17 21:23:44;;;;;;;39.67;21.73;;;;;;;;;;5062083;28;20217;-92
2022/12/17 21:26:13;;;;;;;44.73;26.60;;;;;;;;;;5066561;28;20240;-93
2022/12/17 21:28:41;;;;;;;44.27;22.90;;;;;;;;;;5068900;28;20206;-92
2022/12/17 21:31:15;;;;;;;34.90;20.60;;;;;;;;;;5067710;28;20217;-93
2022/12/17 21:33:42;;;;;;;36.13;20.07;;;;;;;;;;5070081;28;20276;-92
2022/12/17 21:36:10;;;;;;;40.30;21.53;;;;;;;;;;5070668;28;20209;-94
2022/12/17 21:38:37;;;;;;;39.53;21.67;;;;;;;;;;5064340;28;20291;-92
2022/12/17 21:41:07;;;;;;;38.27;21.73;;;;;;;;;;5067437;28;20237;-90
2022/12/17 21:43:35;;;;;;;34.63;19.53;;;;;;;;;;5070664;28;20232;-93
2022/12/17 21:46:03;;;;;;;41.20;21.77;;;;;;;;;;5067825;28;20210;-90
2022/12/17 21:48:30;;;;;;;35.00;20.10;;;;;;;;;;5069226;28;20744;-92
2022/12/17 21:50:57;;;;;;;33.70;18.50;;;;;;;;;;5069204;28;20211;-92
2022/12/17 21:53:24;;;;;;;35.83;19.07;;;;;;;;;;5069769;28;20248;-93
2022/12/17 21:55:51;;;;;;;32.50;18.10;;;;;;;;;;5070853;28;20210;-91
2022/12/17 21:58:21;;;;;;;35.10;17.63;;;;;;;;;;5068615;28;20286;-92
2022/12/17 22:00:48;;;;;;;40.57;21.67;;;;;;;;;;5069026;28;20213;-92
2022/12/17 22:03:16;;;;;;;58.50;31.70;;;;;;;;;;5068530;28;20280;-90
2022/12/17 22:05:43;;;;;;;83.67;40.33;;;;;;;;;;5072176;28;20328;-93
2022/12/17 22:08:11;;;;;;;94.70;43.37;;;;;;;;;;5067399;28;20293;-90
2022/12/17 22:10:41;;;;;;;77.33;39.93;;;;;;;;;;5069287;28;20293;-90
2022/12/17 22:15:55;;;;;;;72.13;35.80;;;;;;;;;;5069241;28;20250;-93
2022/12/17 22:18:22;;;;;;;66.60;33.63;;;;;;;;;;5067553;28;20229;-93
2022/12/17 22:20:56;;;;;;;60.67;30.90;;;;;;;;;;5066967;28;20212;-92
2022/12/17 22:23:24;;;;;;;71.33;35.37;;;;;;;;;;5067169;28;20200;-92
2022/12/17 22:25:51;;;;;;;53.90;28.23;;;;;;;;;;5066411;28;20339;-94
2022/12/17 22:28:18;;;;;;;46.60;23.67;;;;;;;;;;5066562;28;20206;-90
2022/12/17 22:33:32;;;;;;;69.03;26.17;;;;;;;;;;5059959;28;20222;-91
2022/12/17 22:36:01;;;;;;;57.03;21.97;;;;;;;;;;5062141;28;20198;-92
2022/12/17 22:38:28;;;;;;;40.27;16.93;;;;;;;;;;5070631;28;20235;-93
2022/12/17 22:40:55;;;;;;;36.90;15.67;;;;;;;;;;5068799;28;20213;-92
2022/12/17 22:46:06;;;;;;;29.90;12.60;;;;;;;;;;5065300;28;20301;-92
2022/12/17 22:48:35;;;;;;;22.27;11.60;;;;;;;;;;5065516;28;20230;-93
2022/12/17 22:51:08;;;;;;;19.00;10.23;;;;;;;;;;5068726;28;20254;-93
2022/12/17 22:53:36;;;;;;;16.47;8.63;;;;;;;;;;5067258;28;20209;-93
2022/12/17 22:56:04;;;;;;;15.17;8.00;;;;;;;;;;5071953;28;20224;-93
2022/12/17 22:58:31;;;;;;;13.60;8.17;;;;;;;;;;5066776;28;20229;-93
2022/12/17 23:00:59;;;;;;;15.30;7.57;;;;;;;;;;5066502;28;20272;-92
2022/12/17 23:03:27;;;;;;;12.07;6.60;;;;;;;;;;5070310;28;20209;-92
2022/12/17 23:06:05;;;;;;;14.20;7.00;;;;;;;;;;5073019;28;20236;-90
2022/12/17 23:08:32;;;;;;;10.50;6.47;;;;;;;;;;5070233;28;20392;-93
2022/12/17 23:11:00;;;;;;;10.77;6.30;;;;;;;;;;5072812;28;20267;-93
2022/12/17 23:13:27;;;;;;;11.30;7.23;;;;;;;;;;5073977;28;20205;-92
2022/12/17 23:15:54;;;;;;;11.77;6.80;;;;;;;;;;5067772;28;20201;-93
2022/12/17 23:18:21;;;;;;;10.80;6.93;;;;;;;;;;5072507;28;20228;-93
2022/12/17 23:20:48;;;;;;;12.00;7.00;;;;;;;;;;5071242;28;20212;-93
2022/12/17 23:23:17;;;;;;;11.47;7.03;;;;;;;;;;5062965;28;20200;-93
2022/12/17 23:25:44;;;;;;;10.83;6.70;;;;;;;;;;5068633;28;20339;-93
2022/12/17 23:28:11;;;;;;;9.80;6.27;;;;;;;;;;5067360;28;20219;-93
2022/12/17 23:30:39;;;;;;;10.83;6.80;;;;;;;;;;5069301;28;20235;-92
2022/12/17 23:33:06;;;;;;;11.87;7.03;;;;;;;;;;5068385;28;20233;-90
2022/12/17 23:35:33;;;;;;;10.13;6.60;;;;;;;;;;5071025;28;20308;-91
2022/12/17 23:38:00;;;;;;;11.87;7.20;;;;;;;;;;5068031;28;20213;-89
2022/12/17 23:40:29;;;;;;;14.60;7.87;;;;;;;;;;5071785;28;20258;-92
2022/12/17 23:42:57;;;;;;;14.20;7.90;;;;;;;;;;5065477;28;20266;-94
2022/12/17 23:45:24;;;;;;;13.03;7.80;;;;;;;;;;5071219;28;20208;-92
2022/12/17 23:47:51;;;;;;;13.07;7.93;;;;;;;;;;5071546;28;20215;-91
2022/12/17 23:50:18;;;;;;;14.60;9.10;;;;;;;;;;5063739;28;20289;-92
2022/12/17 23:52:45;;;;;;;16.50;10.43;;;;;;;;;;5068829;28;20216;-92
2022/12/17 23:55:13;;;;;;;18.57;11.20;;;;;;;;;;5071800;28;20234;-93
2022/12/17 23:57:41;;;;;;;19.43;11.77;;;;;;;;;;5071486;28;20245;-92
